Woodchoppertown, Pennsylvania
Current Conditions -  °F | °C
As of 3:54 AM on Friday 24 Oct 2014 (Local Time) from KPTW Reporting Station
Overcast Overcast  
Wind Chill: 55°   Ceiling: 2900
Heat Index: 55°   Visibility: 10mi
Dew Point: 44°   Wind: 13mph
Humidity: 67%   Direction: 330°NNW
Pressure: 29.85"   Gusts: 23mph
Location:  40.3481°N, 75.6818°W
Report Text: KPTW 240754Z AUTO 33011G20KT 10SM OVC029 13/07 A2985 RMK AO2 SLP107 T01280067
Loading
Personal Weather Stations






























Interactive Weather Map
Tropical Storm Tracking
New forecast layout! Learn more

10-Day Weather Forecast

Advertisements
Track Severe Weather on mobile